Home   Weather   USA   Mount Carmel   Past weeks
Flag for USA

Past Weather in Mount Carmel, Illinois, USA — Yesterday and Last 2 Weeks

Currently: 80 °F. Sunny. (Weather station: Mount Carmel Municipal Airport, USA). See more current weather

Past Weather in Mount Carmel — Graph

°F

Mount Carmel Temperature Yesterday

Maximum temperature yesterday: 93 °F (at 4:35 pm)
Minimum temperature yesterday: 70 °F (at 5:35 am)
Average temperature yesterday: 81 °F

High & Low Weather Summary for the Past Weeks

 TemperatureHumidityPressure
High93 °F (Jun 14, 4:35 pm)98% (Jun 2, 3:55 am)30.23 "Hg (Jun 2, 3:55 am)
Low47 °F (Jun 11, 4:55 am)19% (Jun 11, 3:55 pm)29.68 "Hg (Jun 5, 1:35 pm)
Average73 °F66%29.91 "Hg
* Reported May 31 7:15 am — Jun 15 7:35 am, Mount Carmel. Weather by CustomWeather, © 2024

Note: Actual official high and low records may vary slightly from our data, if they occured in-between our weather recording intervals... More about our weather records

Mount Carmel Weather History for the Previous 24 Hours

Scroll right to see more
 ConditionsComfort  
Time TempWeatherWind HumidityBarometerVisibility
7:35 am
Sat, Jun 15
72 °FSunny.7 mph59%30.08 "Hg10 mi
7:15 am70 °FSunny.6 mph62%30.07 "Hg10 mi
6:55 am69 °FSunny.No wind66%30.06 "Hg10 mi
6:15 am62 °FSunny.3 mph79%30.05 "Hg10 mi
5:35 am60 °FSunny.No wind84%30.05 "Hg10 mi
5:15 am59 °FClear.No wind87%30.04 "Hg10 mi
4:55 am60 °FClear.No wind82%30.03 "Hg10 mi
4:35 am61 °FClear.No wind82%30.02 "Hg10 mi
4:15 am60 °FClear.No wind82%30.02 "Hg10 mi
3:35 am60 °FClear.No wind79%30.01 "Hg10 mi
2:15 am63 °FClear.No wind72%30.00 "Hg10 mi
1:55 am62 °FClear.No wind77%30.01 "Hg10 mi
1:35 am66 °FClear.No wind63%30.01 "Hg10 mi
12:55 am66 °FClear.No wind65%30.01 "Hg10 mi
12:15 am74 °FClear.6 mph44%30.01 "Hg10 mi
11:55 pm
Fri, Jun 14
76 °FClear.7 mph40%30.01 "Hg10 mi
11:35 pm77 °FClear.8 mph39%30.01 "Hg10 mi
11:15 pm77 °FClear.7 mph39%30.01 "Hg10 mi
10:35 pm78 °FClear.8 mph41%30.00 "Hg10 mi
10:15 pm78 °FClear.7 mph41%30.00 "Hg10 mi
9:55 pm78 °FClear.7 mph44%30.00 "Hg10 mi
9:35 pm80 °FClear.7 mph42%29.99 "Hg10 mi
9:15 pm80 °FClear.7 mph40%29.99 "Hg10 mi
7:55 pm84 °FSunny.7 mph37%29.96 "Hg10 mi
7:35 pm86 °FSunny.10 mph34%29.96 "Hg10 mi
6:55 pm89 °FSunny.10 mph33%29.95 "Hg10 mi
6:35 pm89 °FSunny.12 mph33%29.94 "Hg10 mi
6:15 pm90 °FSunny.9 mph35%29.93 "Hg10 mi
5:55 pm91 °FScattered clouds.10 mph34%29.93 "Hg10 mi
5:35 pm92 °FScattered clouds.9 mph36%29.93 "Hg10 mi
5:15 pm92 °FScattered clouds.10 mph35%29.93 "Hg10 mi
4:55 pm92 °FSunny.8 mph36%29.93 "Hg10 mi
4:35 pm93 °FScattered clouds.9 mph36%29.93 "Hg10 mi
4:15 pm92 °FPartly sunny.8 mph38%29.94 "Hg10 mi
3:55 pm90 °FSunny.7 mph38%29.94 "Hg10 mi
3:35 pm92 °FSunny.10 mph38%29.93 "Hg10 mi
2:55 pm92 °FSunny.14 mph35%29.93 "Hg10 mi
2:35 pm92 °FSunny.12 mph37%29.94 "Hg10 mi
2:15 pm92 °FSunny.6 mph38%29.94 "Hg10 mi
1:55 pm92 °FSunny.9 mph40%29.93 "Hg10 mi
12:55 pm90 °FScattered clouds.7 mph45%29.94 "Hg10 mi
12:15 pm87 °FPartly sunny.7 mph52%29.94 "Hg10 mi
11:55 am87 °FSunny.7 mph51%29.93 "Hg10 mi
11:35 am86 °FScattered clouds.8 mph53%29.93 "Hg10 mi
11:15 am85 °FPartly sunny.6 mph55%29.94 "Hg10 mi
10:55 am85 °FSunny.9 mph56%29.93 "Hg10 mi
10:15 am83 °FSunny.5 mph58%29.93 "Hg10 mi
Weather by CustomWeather, © 2024

See weather overview